Time;durP1;ratioP1;P1;durP2;ratioP2;P2;SDS_P1;SDS_P2;PMS_P1;PMS_P2;Temp;Humidity;BMP_temperature;BMP_pressure;BME280_temperature;BME280_humidity;BME280_pressure;Samples;Min_cycle;Max_cycle;Signal;HPM_P1;HPM_P2
2023/01/18 00:01:34;;;;;;;;;1.00;1.00;;;;;17.40;40.94;96907.63;5130867;27;8946;-80
2023/01/18 00:04:03;;;;;;;;;2.00;2.00;;;;;17.73;40.75;96904.34;5102268;28;8955;-80
2023/01/18 00:06:32;;;;;;;;;0.40;0.40;;;;;17.64;40.91;96900.59;5084947;28;8862;-78
2023/01/18 00:09:02;;;;;;;;;1.60;1.60;;;;;17.47;41.05;96903.59;5068095;28;8838;-80
2023/01/18 00:11:31;;;;;;;;;1.40;1.20;;;;;17.46;41.45;96907.19;5085100;28;9014;-76
2023/01/18 00:14:01;;;;;;;;;3.00;2.00;;;;;17.83;40.70;96904.56;5088219;28;8867;-78
2023/01/18 00:16:30;;;;;;;;;1.00;1.00;;;;;17.93;40.47;96903.78;5064331;28;8987;-79
2023/01/18 00:19:00;;;;;;;;;3.80;2.00;;;;;18.08;39.87;96901.81;5045506;28;8916;-80
2023/01/18 00:21:28;;;;;;;;;1.00;1.00;;;;;18.27;39.37;96905.75;4999753;28;8853;-77
2023/01/18 00:23:57;;;;;;;;;1.20;1.20;;;;;18.44;39.13;96909.75;5069056;28;8952;-76
2023/01/18 00:26:27;;;;;;;;;1.00;1.00;;;;;18.43;38.96;96898.38;5052699;28;8875;-79
2023/01/18 00:28:56;;;;;;;;;2.00;1.00;;;;;18.48;38.93;96888.28;5035350;28;8932;-75
2023/01/18 00:31:25;;;;;;;;;0.60;0.60;;;;;18.45;39.03;96879.75;5067960;28;8965;-78
2023/01/18 00:33:54;;;;;;;;;2.00;1.60;;;;;18.55;38.89;96874.66;5053058;28;8858;-77
2023/01/18 00:36:23;;;;;;;;;1.00;1.00;;;;;18.55;38.96;96879.94;5054958;28;8865;-74
2023/01/18 00:38:52;;;;;;;;;0.20;0.20;;;;;18.58;38.63;96875.25;5071339;28;8861;-77
2023/01/18 00:41:22;;;;;;;;;1.80;0.00;;;;;18.55;38.74;96883.41;5088034;28;8850;-75
2023/01/18 00:43:52;;;;;;;;;1.00;1.00;;;;;18.68;38.71;96888.59;5087815;28;8884;-77
2023/01/18 00:46:22;;;;;;;;;1.20;1.20;;;;;18.70;38.62;96878.75;5071165;28;8932;-77
2023/01/18 00:48:52;;;;;;;;;0.20;0.20;;;;;18.64;38.57;96871.31;5093393;28;8855;-77
2023/01/18 00:51:24;;;;;;;;;2.20;1.00;;;;;18.67;38.54;96897.47;5093448;28;8862;-79
2023/01/18 00:53:53;;;;;;;;;0.80;0.80;;;;;18.56;38.63;96905.34;5076906;28;8852;-77
2023/01/18 00:56:22;;;;;;;;;0.00;0.00;;;;;18.52;38.64;96902.09;5093291;28;8936;-77
2023/01/18 00:58:53;;;;;;;;;1.20;1.20;;;;;18.62;38.71;96897.81;5073625;28;8832;-77
2023/01/18 01:01:21;;;;;;;;;0.60;0.60;;;;;18.53;38.77;96898.53;5103398;28;8821;-78
2023/01/18 01:06:45;;;;;;;;;0.00;0.00;;;;;18.50;38.41;96872.34;5104488;28;8916;-78
2023/01/18 01:09:17;;;;;;;;;0.60;0.60;;;;;18.47;38.79;96877.88;5091888;28;8840;-78
2023/01/18 01:28:24;;;;;;;;;1.00;1.00;;;;;18.27;39.22;96860.91;5108512;28;8879;-80
2023/01/18 01:30:59;;;;;;;;;1.40;1.00;;;;;18.28;39.36;96858.16;5092509;28;8864;-79
2023/01/18 01:33:28;;;;;;;;;1.00;1.00;;;;;18.18;39.22;96854.50;5108246;28;8954;-77
2023/01/18 01:35:58;;;;;;;;;0.60;0.60;;;;;18.05;39.81;96864.28;5074062;28;8955;-80
2023/01/18 01:38:27;;;;;;;;;1.00;1.00;;;;;18.12;39.63;96862.88;5085358;28;8861;-80
2023/01/18 01:40:58;;;;;;;;;0.20;0.20;;;;;18.02;39.91;96864.53;5053814;28;8845;-77
2023/01/18 01:43:42;;;;;;;;;1.00;1.00;;;;;17.66;40.84;96861.78;5021439;28;8842;-79
2023/01/18 01:46:33;;;;;;;;;0.80;0.80;;;;;17.78;40.49;96854.78;5091479;28;8874;-78
2023/01/18 01:49:09;;;;;;;;;0.00;0.00;;;;;17.45;41.01;96858.91;5090856;28;8840;-78
2023/01/18 01:51:41;;;;;;;;;0.00;0.00;;;;;17.60;41.28;96850.84;5063236;28;8824;-80
2023/01/18 01:54:14;;;;;;;;;1.00;1.00;;;;;17.71;40.83;96851.78;5089761;28;8875;-78
2023/01/18 01:56:46;;;;;;;;;0.60;0.60;;;;;17.49;41.60;96864.81;5089104;28;8853;-79
2023/01/18 01:59:16;;;;;;;;;2.00;1.00;;;;;17.54;41.49;96852.13;5092363;28;8852;-74
2023/01/18 02:01:47;;;;;;;;;0.00;0.00;;;;;17.73;40.92;96856.91;5092152;28;8906;-76
2023/01/18 02:04:15;;;;;;;;;1.00;1.00;;;;;17.43;41.51;96854.69;5089895;28;8885;-77
2023/01/18 02:06:44;;;;;;;;;0.00;0.00;;;;;17.54;41.26;96845.09;5105428;28;8855;-79
2023/01/18 02:09:15;;;;;;;;;0.00;0.00;;;;;17.34;41.29;96843.88;5071403;28;8847;-77
2023/01/18 02:11:44;;;;;;;;;0.00;0.00;;;;;17.31;42.05;96856.41;5105057;28;8844;-77
2023/01/18 02:14:15;;;;;;;;;0.00;0.00;;;;;17.32;42.06;96858.13;5089148;28;8986;-77
2023/01/18 02:17:01;;;;;;;;;0.00;0.00;;;;;17.36;41.95;96861.38;5071387;28;8855;-80
2023/01/18 02:19:59;;;;;;;;;0.00;0.00;;;;;17.24;42.58;96855.16;5087785;28;8848;-76
2023/01/18 02:22:44;;;;;;;;;0.00;0.00;;;;;17.08;43.17;96869.41;5089231;28;8840;-77
2023/01/18 02:25:34;;;;;;;;;0.00;0.00;;;;;17.18;42.98;96842.44;5089205;28;8893;-76
2023/01/18 02:28:10;;;;;;;;;0.00;0.00;;;;;17.40;42.34;96845.22;5089388;28;8952;-77
2023/01/18 02:30:43;;;;;;;;;0.00;0.00;;;;;17.25;42.45;96838.44;5104863;27;8813;-77
2023/01/18 02:33:18;;;;;;;;;0.00;0.00;;;;;17.42;42.39;96856.50;5121729;27;9679;-77
2023/01/18 02:35:51;;;;;;;;;0.00;0.00;;;;;17.21;42.75;96850.13;5130083;27;8890;-78
2023/01/18 02:38:24;;;;;;;;;0.00;0.00;;;;;17.44;42.03;96854.59;5120469;27;8849;-76
2023/01/18 02:41:08;;;;;;;;;0.00;0.00;;;;;17.52;41.92;96841.72;5111354;27;8876;-77
2023/01/18 02:57:56;;;;;;;;;0.00;0.00;;;;;17.48;42.01;96856.03;5101358;27;1356034;-77
2023/01/18 03:00:27;;;;;;;;;0.00;0.00;;;;;17.41;41.76;96861.88;5094566;27;8827;-75
2023/01/18 03:02:58;;;;;;;;;0.00;0.00;;;;;17.33;42.46;96859.78;5115932;28;8857;-78
2023/01/18 03:05:31;;;;;;;;;0.00;0.00;;;;;17.69;42.05;96858.09;5105914;28;8957;-76
2023/01/18 03:08:08;;;;;;;;;0.00;0.00;;;;;17.09;43.85;96847.41;5105701;28;8854;-78
2023/01/18 03:10:46;;;;;;;;;0.00;0.00;;;;;17.07;44.05;96864.25;5106370;28;8834;-77
2023/01/18 03:13:23;;;;;;;;;1.00;1.00;;;;;17.33;44.02;96860.66;5106463;28;8822;-78
2023/01/18 03:15:57;;;;;;;;;0.00;0.00;;;;;17.15;44.78;96869.84;5107180;28;8926;-78
2023/01/18 03:18:35;;;;;;;;;0.00;0.00;;;;;17.44;44.30;96869.56;5105921;28;8826;-77
2023/01/18 03:21:07;;;;;;;;;1.00;0.00;;;;;17.52;45.00;96868.06;5109628;28;8936;-78
2023/01/18 03:23:41;;;;;;;;;0.00;0.00;;;;;17.53;45.01;96840.75;5106204;28;8830;-76
2023/01/18 03:26:15;;;;;;;;;0.00;0.00;;;;;17.48;45.00;96824.44;5105796;28;8918;-77
2023/01/18 03:34:32;;;;;;;;;1.00;1.00;;;;;17.52;45.52;96828.56;5104313;28;8927;-78
2023/01/18 03:37:04;;;;;;;;;0.00;0.00;;;;;17.66;44.84;96831.97;5084321;28;8878;-76
2023/01/18 03:39:39;;;;;;;;;0.60;0.00;;;;;17.65;44.79;96830.28;5084142;28;8852;-76
2023/01/18 03:42:12;;;;;;;;;0.40;0.00;;;;;17.62;44.46;96834.00;5084209;28;8870;-76
2023/01/18 03:44:47;;;;;;;;;1.20;0.00;;;;;17.47;44.52;96828.03;5048934;28;8848;-76
2023/01/18 03:47:17;;;;;;;;;0.00;0.00;;;;;17.53;45.28;96824.94;5084050;28;8852;-77
2023/01/18 03:49:45;;;;;;;;;0.00;0.00;;;;;17.41;45.48;96811.81;5084343;28;8856;-78
2023/01/18 03:52:18;;;;;;;;;0.00;0.00;;;;;17.61;44.68;96799.84;5065780;28;8848;-77
2023/01/18 03:54:55;;;;;;;;;0.00;0.00;;;;;17.81;44.10;96807.13;5021084;28;8936;-77
2023/01/18 03:57:31;;;;;;;;;0.00;0.00;;;;;17.94;43.50;96815.00;4999472;28;8871;-77
2023/01/18 04:00:03;;;;;;;;;0.00;0.00;;;;;17.92;43.24;96817.75;5008314;28;8901;-77
2023/01/18 04:02:40;;;;;;;;;0.00;0.00;;;;;17.96;43.20;96821.00;5020978;28;9676;-76
2023/01/18 04:05:10;;;;;;;;;0.00;0.00;;;;;17.91;43.22;96838.94;5027800;28;8869;-77
2023/01/18 04:07:38;;;;;;;;;0.40;0.40;;;;;18.04;43.12;96844.16;5010320;28;8895;-77
2023/01/18 04:10:08;;;;;;;;;0.20;0.20;;;;;17.93;43.05;96843.13;5027402;28;8974;-76
2023/01/18 04:12:37;;;;;;;;;0.40;0.40;;;;;17.99;43.35;96859.47;5027777;28;8892;-78
2023/01/18 04:15:08;;;;;;;;;0.00;0.00;;;;;17.76;43.62;96872.50;4994822;28;8877;-75
2023/01/18 04:17:38;;;;;;;;;3.00;2.00;;;;;17.94;43.19;96880.91;4995570;28;8919;-76
2023/01/18 04:20:08;;;;;;;;;0.60;0.60;;;;;18.03;43.18;96887.28;4995214;28;8959;-76
2023/01/18 04:22:37;;;;;;;;;0.40;0.40;;;;;17.94;43.78;96891.47;5027618;28;9065;-78
2023/01/18 04:25:07;;;;;;;;;1.00;1.00;;;;;17.96;44.29;96881.66;5036057;28;8900;-79
2023/01/18 04:27:35;;;;;;;;;0.00;0.00;;;;;17.93;44.49;96850.22;5070709;28;9699;-77
2023/01/18 04:30:05;;;;;;;;;0.20;0.20;;;;;17.74;45.30;96855.97;5038003;28;8915;-77
2023/01/18 04:32:35;;;;;;;;;0.00;0.00;;;;;17.70;45.20;96850.06;5090588;28;8853;-77
2023/01/18 04:35:04;;;;;;;;;0.00;0.00;;;;;17.78;45.67;96854.78;5090222;28;8988;-81
2023/01/18 04:37:33;;;;;;;;;2.00;0.20;;;;;17.73;45.63;96849.88;5079855;28;8839;-78
2023/01/18 04:40:01;;;;;;;;;0.00;0.00;;;;;17.74;45.73;96862.06;5077846;28;8838;-77
2023/01/18 04:42:30;;;;;;;;;3.40;2.20;;;;;17.74;45.37;96853.31;5075799;28;9088;-76
2023/01/18 04:44:59;;;;;;;;;1.60;1.00;;;;;17.53;45.76;96832.03;5051490;28;8859;-77
2023/01/18 04:47:28;;;;;;;;;0.00;0.00;;;;;17.46;45.86;96843.94;5051830;28;8844;-76
2023/01/18 04:49:58;;;;;;;;;2.00;1.00;;;;;17.46;45.94;96870.28;5069506;28;8972;-78
2023/01/18 04:52:31;;;;;;;;;0.00;0.00;;;;;17.42;45.91;96850.41;5051930;28;8844;-78
2023/01/18 04:54:59;;;;;;;;;7.00;7.00;;;;;17.38;45.57;96833.13;5051329;28;8966;-77
2023/01/18 04:57:28;;;;;;;;;1.00;0.00;;;;;17.52;45.40;96812.75;5030584;28;9005;-77
2023/01/18 04:59:59;;;;;;;;;0.00;0.00;;;;;17.54;45.29;96817.88;5067018;28;8853;-77
2023/01/18 05:02:28;;;;;;;;;0.00;0.00;;;;;17.49;45.52;96823.50;5089140;28;8845;-76
2023/01/18 05:04:58;;;;;;;;;0.00;0.00;;;;;17.58;45.53;96823.75;5089193;28;8968;-77
2023/01/18 05:07:29;;;;;;;;;0.00;0.00;;;;;17.56;45.52;96823.03;5037275;28;8954;-78
2023/01/18 05:09:58;;;;;;;;;0.00;0.00;;;;;17.53;45.16;96838.13;5088218;28;8865;-77
2023/01/18 05:12:27;;;;;;;;;0.00;0.00;;;;;17.54;45.28;96855.63;5088483;28;8876;-79
2023/01/18 05:14:55;;;;;;;;;14.40;10.80;;;;;17.53;45.58;96863.63;5074637;28;8951;-77
2023/01/18 05:17:29;;;;;;;;;3.00;3.00;;;;;17.44;46.07;96856.38;5054325;28;8865;-78
2023/01/18 05:19:59;;;;;;;;;6.40;6.00;;;;;17.46;46.13;96859.75;5088927;28;8884;-77
2023/01/18 05:22:28;;;;;;;;;0.00;0.00;;;;;17.48;45.86;96869.22;5088857;28;8854;-76
2023/01/18 05:24:57;;;;;;;;;0.00;0.00;;;;;17.46;45.58;96865.03;5054082;28;9603;-77
2023/01/18 05:27:26;;;;;;;;;0.60;0.60;;;;;17.49;45.82;96862.19;5021064;28;8961;-76
2023/01/18 05:29:54;;;;;;;;;0.00;0.00;;;;;17.29;46.18;96866.22;5088292;28;8990;-78
2023/01/18 05:32:23;;;;;;;;;0.00;0.00;;;;;17.45;45.81;96874.72;5068766;28;8965;-78
2023/01/18 05:34:52;;;;;;;;;1.00;1.00;;;;;17.38;45.93;96878.75;5017462;28;8867;-78
2023/01/18 05:37:22;;;;;;;;;1.00;1.00;;;;;17.50;45.90;96890.19;5050543;28;8840;-75
2023/01/18 05:39:51;;;;;;;;;1.40;1.00;;;;;17.47;45.89;96888.63;5068462;28;8919;-79
2023/01/18 05:42:19;;;;;;;;;1.00;1.00;;;;;17.36;45.80;96882.44;5068351;28;8843;-75
2023/01/18 05:44:48;;;;;;;;;1.00;1.00;;;;;17.57;45.51;96880.06;5026983;28;8882;-76
2023/01/18 05:47:17;;;;;;;;;1.00;1.00;;;;;17.42;45.31;96879.38;5082139;28;8945;-76
2023/01/18 05:49:46;;;;;;;;;0.20;0.20;;;;;17.22;45.81;96857.94;5033626;28;8886;-76
2023/01/18 05:52:15;;;;;;;;;1.20;0.40;;;;;17.44;45.73;96861.66;5067901;28;8835;-76
2023/01/18 05:54:46;;;;;;;;;0.40;0.40;;;;;17.27;46.20;96882.13;5050057;28;8871;-77
2023/01/18 05:57:14;;;;;;;;;1.00;1.00;;;;;16.86;47.21;96899.03;5068379;28;8831;-76
2023/01/18 05:59:43;;;;;;;;;1.60;1.60;;;;;17.02;47.22;96892.72;5050254;28;8855;-79
2023/01/18 06:02:12;;;;;;;;;0.00;0.00;;;;;16.55;48.46;96889.72;5085355;28;8926;-80
2023/01/18 06:04:43;;;;;;;;;1.40;1.40;;;;;16.71;48.02;96892.13;5081119;28;8843;-80
2023/01/18 06:07:12;;;;;;;;;1.00;1.00;;;;;16.51;48.65;96894.34;5073277;28;10089;-77
2023/01/18 06:09:41;;;;;;;;;2.00;2.00;;;;;16.50;48.67;96902.31;5077242;28;8890;-78
2023/01/18 06:12:12;;;;;;;;;1.40;1.40;;;;;16.67;48.50;96911.72;5052052;28;8824;-80
2023/01/18 06:14:40;;;;;;;;;4.00;4.00;;;;;16.78;48.54;96903.94;5071223;28;9573;-78
2023/01/18 06:17:09;;;;;;;;;2.00;2.00;;;;;16.91;47.98;96909.25;5048628;28;9612;-67
2023/01/18 06:19:38;;;;;;;;;2.00;2.00;;;;;16.85;48.35;96910.50;5066267;28;8891;-69
2023/01/18 06:22:06;;;;;;;;;5.20;4.00;;;;;16.99;47.53;96929.78;5082007;28;8934;-68
2023/01/18 06:24:35;;;;;;;;;2.40;2.40;;;;;17.06;47.26;96925.78;5087932;28;8866;-77
2023/01/18 06:27:04;;;;;;;;;7.00;5.00;;;;;16.85;48.34;96941.25;5000401;28;8842;-81
2023/01/18 06:29:34;;;;;;;;;7.80;7.60;;;;;16.70;48.98;96946.56;5069538;28;8931;-77
2023/01/18 06:32:03;;;;;;;;;0.60;0.60;;;;;17.01;47.58;96946.31;5084338;28;8854;-77
2023/01/18 06:34:32;;;;;;;;;2.60;2.00;;;;;17.10;47.55;96956.22;5085097;28;8842;-78
2023/01/18 06:37:00;;;;;;;;;5.20;5.20;;;;;17.00;47.95;96950.75;5016081;28;8932;-78
2023/01/18 06:39:29;;;;;;;;;4.00;3.60;;;;;16.91;48.05;96962.72;5087664;28;8846;-77
2023/01/18 06:41:58;;;;;;;;;2.00;1.60;;;;;16.85;47.91;96962.31;5070996;28;8858;-79
2023/01/18 06:44:27;;;;;;;;;4.00;4.00;;;;;16.68;48.64;96966.88;5048505;28;8927;-77
2023/01/18 06:46:57;;;;;;;;;4.00;2.40;;;;;16.69;48.33;96976.47;5082557;28;8864;-78
2023/01/18 06:49:25;;;;;;;;;4.40;3.40;;;;;16.58;49.04;96965.81;5081363;28;9680;-79
2023/01/18 06:51:55;;;;;;;;;5.60;3.40;;;;;16.62;48.38;96980.44;5052610;28;9628;-78
2023/01/18 06:54:23;;;;;;;;;3.40;3.40;;;;;16.61;48.32;96989.28;5067122;28;8879;-78
2023/01/18 06:56:52;;;;;;;;;6.40;6.00;;;;;16.49;48.99;97001.47;5067801;28;8887;-77
2023/01/18 06:59:21;;;;;;;;;3.80;3.00;;;;;16.54;48.54;97006.41;5066925;28;8872;-77
2023/01/18 07:01:53;;;;;;;;;7.40;6.80;;;;;16.67;48.48;97019.59;5059608;28;8858;-77
2023/01/18 07:04:23;;;;;;;;;1.80;1.80;;;;;16.33;49.26;97017.41;5062767;28;8856;-76
2023/01/18 07:06:52;;;;;;;;;1.20;1.20;;;;;16.19;49.61;97041.09;5083347;28;8846;-77
2023/01/18 07:09:21;;;;;;;;;4.20;4.20;;;;;16.25;49.85;97051.22;5081140;28;8887;-77
2023/01/18 07:11:50;;;;;;;;;1.20;1.20;;;;;16.08;50.10;97046.19;5061007;28;8866;-80
2023/01/18 07:14:18;;;;;;;;;3.00;3.00;;;;;16.12;49.84;97051.19;5068945;28;8896;-74
2023/01/18 07:16:47;;;;;;;;;3.20;2.80;;;;;16.10;49.67;97070.59;5065138;28;8856;-74
2023/01/18 07:19:16;;;;;;;;;0.60;0.60;;;;;16.13;49.08;97073.06;5066851;28;8911;-75
2023/01/18 07:21:47;;;;;;;;;2.00;0.60;;;;;15.95;49.57;97085.53;5062436;28;8845;-74
2023/01/18 07:24:17;;;;;;;;;1.80;1.60;;;;;15.85;49.42;97066.88;5023178;28;9638;-75
2023/01/18 07:26:45;;;;;;;;;3.20;1.80;;;;;16.09;48.92;97082.91;5072031;28;8937;-75
2023/01/18 07:29:14;;;;;;;;;3.40;1.60;;;;;16.05;48.65;97077.94;5065915;28;8852;-74
2023/01/18 07:31:43;;;;;;;;;1.20;1.20;;;;;16.12;48.17;97079.22;5066934;28;8855;-74
2023/01/18 07:34:13;;;;;;;;;2.00;1.40;;;;;16.13;48.28;97080.94;5070181;28;8874;-75
2023/01/18 07:36:41;;;;;;;;;1.20;1.20;;;;;16.24;47.47;97096.88;5027022;28;8859;-75
2023/01/18 07:39:11;;;;;;;;;1.00;1.00;;;;;16.42;46.97;97099.28;5070431;28;8890;-74
2023/01/18 07:41:40;;;;;;;;;2.00;1.00;;;;;16.44;46.90;97118.44;5082025;28;8959;-75
2023/01/18 07:44:10;;;;;;;;;2.00;2.00;;;;;16.56;46.79;97126.41;5089785;28;8838;-76
2023/01/18 07:46:41;;;;;;;;;1.20;1.20;;;;;16.81;46.44;97127.47;5058156;28;8940;-74
2023/01/18 07:49:10;;;;;;;;;4.00;4.00;;;;;16.99;46.01;97141.22;5070230;28;8988;-75
2023/01/18 07:51:40;;;;;;;;;5.20;5.20;;;;;17.02;45.63;97153.38;5051821;28;8855;-74
2023/01/18 07:54:08;;;;;;;;;2.00;2.00;;;;;17.39;44.54;97149.16;5037836;28;8853;-74
2023/01/18 07:56:39;;;;;;;;;3.40;2.00;;;;;17.32;44.57;97179.47;5054257;28;8846;-74
2023/01/18 07:59:07;;;;;;;;;3.00;3.00;;;;;17.27;44.89;97184.19;5034210;28;9033;-74
2023/01/18 08:01:36;;;;;;;;;4.40;3.80;;;;;17.34;44.72;97194.22;5069990;28;8844;-71
2023/01/18 08:04:05;;;;;;;;;4.60;3.60;;;;;17.32;45.28;97204.03;5048378;28;8979;-70
2023/01/18 08:06:34;;;;;;;;;3.60;3.60;;;;;17.66;44.64;97214.13;5061317;28;8858;-70
2023/01/18 08:09:02;;;;;;;;;6.80;5.20;;;;;17.90;43.98;97222.19;5004392;28;8852;-76
2023/01/18 08:11:31;;;;;;;;;2.60;1.80;;;;;17.84;44.39;97225.22;5069525;28;8848;-77
2023/01/18 08:14:01;;;;;;;;;3.80;3.80;;;;;17.93;43.74;97254.47;5069377;28;8868;-75
2023/01/18 08:16:30;;;;;;;;;4.40;4.40;;;;;17.22;45.71;97292.50;5048526;28;8830;-77
2023/01/18 08:18:59;;;;;;;;;3.60;3.60;;;;;16.33;48.81;97325.13;5069664;28;9664;-75
2023/01/18 08:21:28;;;;;;;;;3.00;2.00;;;;;15.61;50.79;97324.00;5069241;28;8832;-77
2023/01/18 08:23:57;;;;;;;;;7.60;5.60;;;;;14.87;53.59;97359.56;5069827;28;8852;-77
2023/01/18 08:26:26;;;;;;;;;4.00;4.00;;;;;13.35;57.27;97383.69;5070195;28;8840;-76
2023/01/18 08:28:55;;;;;;;;;4.00;4.00;;;;;12.88;58.93;97412.84;5051017;28;8952;-75
2023/01/18 08:31:25;;;;;;;;;9.00;6.80;;;;;12.93;58.65;97428.31;5045770;28;8966;-75
2023/01/18 08:33:54;;;;;;;;;1.60;1.60;;;;;12.14;61.72;97447.34;5071178;28;8902;-77
2023/01/18 08:36:25;;;;;;;;;2.80;2.80;;;;;12.20;61.71;97451.47;5068948;28;8844;-76
2023/01/18 08:38:55;;;;;;;;;2.00;2.00;;;;;11.95;62.63;97462.91;5069317;28;8864;-76
2023/01/18 08:41:28;;;;;;;;;2.00;2.00;;;;;11.85;63.11;97464.13;5069493;28;8883;-75
2023/01/18 08:43:58;;;;;;;;;1.00;1.00;;;;;11.95;63.89;97501.25;5069085;28;8883;-78
2023/01/18 08:46:29;;;;;;;;;2.80;2.80;;;;;12.07;63.49;97490.28;5071311;28;8862;-78
2023/01/18 08:48:58;;;;;;;;;2.40;2.40;;;;;12.00;62.89;97500.16;5046541;28;8885;-78
2023/01/18 08:51:27;;;;;;;;;2.40;2.40;;;;;12.26;62.90;97504.31;5030137;28;8870;-77
2023/01/18 08:53:57;;;;;;;;;7.00;7.00;;;;;12.70;61.75;97507.78;5030314;28;8877;-76
2023/01/18 08:56:27;;;;;;;;;2.00;0.80;;;;;12.56;61.97;97524.06;5047215;28;9789;-75
2023/01/18 08:58:56;;;;;;;;;3.00;3.00;;;;;12.97;61.14;97508.41;5046683;28;8878;-76
2023/01/18 09:01:25;;;;;;;;;2.00;2.00;;;;;13.39;58.80;97513.53;5014136;28;9587;-75
2023/01/18 09:03:57;;;;;;;;;6.60;4.00;;;;;12.70;61.29;97516.47;5029964;28;8855;-77
2023/01/18 09:06:30;;;;;;;;;5.60;5.60;;;;;13.22;59.81;97518.63;5046193;28;8855;-74
2023/01/18 09:08:59;;;;;;;;;4.40;2.20;;;;;12.82;60.76;97539.50;5045764;28;8925;-75
2023/01/18 09:11:28;;;;;;;;;2.00;2.00;;;;;12.77;61.64;97541.47;5012895;28;8963;-74
2023/01/18 09:13:58;;;;;;;;;2.00;2.00;;;;;12.75;61.87;97539.84;5029466;28;8897;-77
2023/01/18 09:16:30;;;;;;;;;3.60;3.60;;;;;13.18;60.07;97551.09;5045974;28;9701;-77
2023/01/18 09:19:05;;;;;;;;;9.00;9.00;;;;;13.11;61.15;97545.25;5046019;28;8882;-75
2023/01/18 09:21:34;;;;;;;;;4.00;4.00;;;;;13.60;58.82;97547.53;5070740;28;8864;-74
2023/01/18 09:24:03;;;;;;;;;5.00;5.00;;;;;14.18;57.53;97546.63;5037101;28;8992;-77
2023/01/18 09:26:32;;;;;;;;;5.20;4.00;;;;;14.38;55.85;97558.75;5083047;28;8838;-75
2023/01/18 09:29:00;;;;;;;;;2.00;2.00;;;;;13.93;57.42;97562.63;5052366;28;8853;-75
2023/01/18 09:31:29;;;;;;;;;6.20;6.20;;;;;13.82;57.66;97560.50;5032647;28;8867;-77
2023/01/18 09:33:58;;;;;;;;;1.00;1.00;;;;;14.55;55.35;97568.44;5025493;28;8846;-76
2023/01/18 09:36:50;;;;;;;;;2.00;1.60;;;;;14.77;54.28;97568.28;5036033;28;8848;-74
2023/01/18 09:39:19;;;;;;;;;2.00;2.00;;;;;14.41;54.79;97562.09;5068644;28;9144;-76
2023/01/18 09:41:52;;;;;;;;;2.00;2.00;;;;;14.22;55.52;97567.34;5068155;28;8882;-77
2023/01/18 09:44:28;;;;;;;;;0.80;0.80;;;;;14.69;53.51;97568.66;5068093;28;8852;-75
2023/01/18 09:47:02;;;;;;;;;2.00;2.00;;;;;14.34;54.63;97584.28;5068268;28;8832;-76
2023/01/18 09:49:37;;;;;;;;;4.60;2.40;;;;;14.69;54.26;97570.41;5050036;28;8905;-74
2023/01/18 09:52:24;;;;;;;;;1.00;1.00;;;;;14.60;53.23;97567.31;5068202;28;8836;-77
2023/01/18 09:55:02;;;;;;;;;2.00;2.00;;;;;14.57;53.65;97572.72;5018089;28;9003;-76
2023/01/18 09:57:45;;;;;;;;;2.00;2.00;;;;;14.72;53.41;97563.25;4985051;28;9036;-75
2023/01/18 10:00:21;;;;;;;;;4.00;3.40;;;;;14.91;52.83;97555.28;4985797;28;8872;-76
2023/01/18 10:02:54;;;;;;;;;1.20;1.00;;;;;15.23;51.42;97568.56;4954318;28;8939;-77
2023/01/18 10:05:27;;;;;;;;;2.00;2.00;;;;;14.98;52.06;97566.34;4985934;28;8872;-76
2023/01/18 10:08:03;;;;;;;;;1.00;1.00;;;;;15.20;51.55;97569.59;4985765;28;8829;-78
2023/01/18 10:10:37;;;;;;;;;3.20;1.40;;;;;15.56;49.84;97549.38;4985846;28;8920;-78
2023/01/18 10:13:34;;;;;;;;;1.20;1.20;;;;;16.02;49.63;97564.47;4969684;28;8865;-76
2023/01/18 10:16:03;;;;;;;;;0.20;0.20;;;;;15.79;49.06;97551.63;4969734;28;8853;-76
2023/01/18 10:18:32;;;;;;;;;4.20;2.00;;;;;15.57;49.79;97562.41;4985573;28;8894;-76
2023/01/18 10:21:06;;;;;;;;;2.20;1.20;;;;;15.27;50.51;97571.91;4953034;28;9037;-77
2023/01/18 10:23:45;;;;;;;;;1.20;1.20;;;;;15.79;49.45;97569.19;4969489;28;9085;-75
2023/01/18 10:26:20;;;;;;;;;4.60;3.00;;;;;16.11;48.92;97566.59;5007462;28;8880;-76
2023/01/18 10:28:57;;;;;;;;;1.80;1.80;;;;;16.14;47.72;97561.16;5030646;28;8844;-75
2023/01/18 10:31:43;;;;;;;;;3.00;3.00;;;;;16.54;47.25;97564.19;5067490;28;8856;-77
2023/01/18 10:34:17;;;;;;;;;2.60;2.20;;;;;16.62;46.78;97564.63;5067710;28;8946;-77
2023/01/18 10:36:49;;;;;;;;;3.40;2.80;;;;;16.22;47.53;97574.75;5066586;28;8860;-76
2023/01/18 10:39:36;;;;;;;;;2.00;2.00;;;;;15.78;48.99;97572.75;5080415;28;11257;-77
2023/01/18 10:42:16;;;;;;;;;3.20;3.20;;;;;15.74;49.27;97574.69;5087477;28;8898;-77
2023/01/18 10:44:46;;;;;;;;;2.00;2.00;;;;;15.75;49.39;97571.13;5069640;28;8938;-77
2023/01/18 10:47:17;;;;;;;;;5.80;5.00;;;;;15.98;48.76;97587.47;5005246;28;8844;-76
2023/01/18 10:49:49;;;;;;;;;3.40;3.40;;;;;15.80;49.16;97581.38;5067566;28;8871;-76
2023/01/18 10:52:24;;;;;;;;;1.20;1.20;;;;;16.32;47.99;97589.09;5049790;28;8870;-77
2023/01/18 10:54:56;;;;;;;;;4.20;3.80;;;;;15.99;48.42;97583.88;5067266;28;8852;-76
2023/01/18 10:57:31;;;;;;;;;3.00;2.80;;;;;16.11;48.54;97585.00;5067206;28;8895;-76
2023/01/18 11:00:00;;;;;;;;;5.00;5.00;;;;;16.72;47.27;97592.09;5067595;28;8827;-76
2023/01/18 11:02:33;;;;;;;;;3.40;3.20;;;;;17.20;46.52;97586.75;5058379;28;8894;-78
2023/01/18 11:05:19;;;;;;;;;2.00;2.00;;;;;17.52;45.22;97582.22;5067144;28;9597;-78
2023/01/18 11:07:47;;;;;;;;;1.80;1.60;;;;;17.11;45.77;97588.16;5028893;28;8930;-76
2023/01/18 11:10:26;;;;;;;;;2.00;2.00;;;;;17.02;46.17;97598.38;5039580;28;8858;-76
2023/01/18 11:12:55;;;;;;;;;5.60;4.60;;;;;16.95;46.43;97595.22;5091480;28;8846;-77
2023/01/18 11:15:29;;;;;;;;;3.00;3.00;;;;;16.90;46.29;97592.88;5091347;28;8866;-76
2023/01/18 11:18:08;;;;;;;;;3.40;3.40;;;;;16.62;46.21;97592.72;5069680;28;9596;-77
2023/01/18 11:20:47;;;;;;;;;1.80;0.80;;;;;16.91;45.39;97591.91;5069462;28;8872;-75
2023/01/18 11:23:19;;;;;;;;;2.40;2.20;;;;;17.28;45.02;97594.22;5071205;28;8935;-78
2023/01/18 11:25:57;;;;;;;;;1.40;1.40;;;;;17.78;44.10;97592.09;5070434;28;8874;-75
2023/01/18 11:28:30;;;;;;;;;3.20;2.00;;;;;17.92;43.22;97595.59;5070550;28;8868;-77
2023/01/18 11:31:09;;;;;;;;;1.60;1.60;;;;;17.94;42.35;97590.25;5070041;28;8895;-78
2023/01/18 11:33:48;;;;;;;;;3.20;2.80;;;;;17.57;41.64;97597.72;5071066;28;9048;-78
2023/01/18 11:36:19;;;;;;;;;1.00;0.60;;;;;16.76;43.26;97605.94;5071044;28;8852;-78
2023/01/18 11:38:48;;;;;;;;;2.20;1.20;;;;;16.69;43.89;97607.22;5070782;28;8949;-76
2023/01/18 11:41:22;;;;;;;;;1.00;1.00;;;;;16.72;43.54;97605.25;5070701;28;8875;-76
2023/01/18 11:44:06;;;;;;;;;1.00;1.00;;;;;17.37;43.15;97605.97;5070886;28;8868;-77
2023/01/18 11:46:42;;;;;;;;;1.00;1.00;;;;;16.97;42.69;97598.63;5070650;28;9120;-76
2023/01/18 11:49:27;;;;;;;;;4.00;4.00;;;;;17.07;43.25;97598.94;5071053;28;8944;-76
2023/01/18 11:52:01;;;;;;;;;1.00;1.00;;;;;16.80;43.54;97604.81;5052305;28;8864;-81
2023/01/18 11:54:39;;;;;;;;;4.00;4.00;;;;;17.12;43.06;97596.88;5069877;28;8849;-77
2023/01/18 11:57:11;;;;;;;;;3.00;3.00;;;;;17.27;42.64;97600.41;5090561;28;8955;-79
2023/01/18 11:59:43;;;;;;;;;3.40;3.40;;;;;16.85;44.05;97602.81;5072137;28;8866;-77
2023/01/18 12:02:38;;;;;;;;;3.00;2.80;;;;;16.70;43.88;97598.41;5071499;28;8849;-79
2023/01/18 12:05:29;;;;;;;;;3.00;3.00;;;;;16.99;43.81;97588.84;5090617;28;8857;-78
2023/01/18 12:08:14;;;;;;;;;3.60;3.20;;;;;17.01;43.86;97596.66;5055969;28;8884;-78
2023/01/18 12:10:54;;;;;;;;;2.00;2.00;;;;;17.68;43.15;97603.19;5072076;28;8861;-76
2023/01/18 12:13:34;;;;;;;;;4.60;2.60;;;;;18.11;42.13;97612.94;5054517;28;8834;-78
2023/01/18 12:16:17;;;;;;;;;6.00;6.00;;;;;17.86;42.28;97613.59;5089640;28;8858;-77
2023/01/18 12:19:23;;;;;;;;;8.40;6.80;;;;;18.43;41.57;97623.22;5090003;28;8869;-79
2023/01/18 12:22:16;;;;;;;;;4.00;3.00;;;;;18.79;41.10;97620.03;5090868;28;8892;-77
2023/01/18 12:24:59;;;;;;;;;1.40;1.40;;;;;18.93;40.08;97613.88;5071258;28;8824;-76
2023/01/18 12:27:36;;;;;;;;;4.00;2.20;;;;;19.16;39.84;97606.22;5051379;28;8992;-77
2023/01/18 12:30:21;;;;;;;;;3.00;3.00;;;;;19.42;39.56;97610.59;5037272;28;8863;-78
2023/01/18 12:33:06;;;;;;;;;4.60;4.00;;;;;19.58;38.89;97602.47;5031039;28;8874;-76
2023/01/18 12:36:00;;;;;;;;;6.60;6.20;;;;;19.68;38.53;97606.19;5069169;28;8848;-77
2023/01/18 12:38:31;;;;;;;;;5.00;4.60;;;;;19.73;38.36;97600.59;5033810;28;8872;-79
2023/01/18 12:41:31;;;;;;;;;2.60;1.40;;;;;20.00;37.95;97619.00;5069687;28;9004;-77
2023/01/18 12:44:24;;;;;;;;;2.00;2.00;;;;;19.99;37.42;97621.75;5019304;28;9126;-77
2023/01/18 12:47:06;;;;;;;;;0.40;0.40;;;;;20.10;37.17;97623.66;4968073;28;8869;-77